createdAt,value
2022-09-14T00:00:32.271Z,0.00
2022-09-14T00:01:32.251Z,0.00
2022-09-14T00:02:32.361Z,0.00
2022-09-14T00:03:32.908Z,0.00
2022-09-14T00:04:32.275Z,0.00
2022-09-14T00:05:32.176Z,0.00
2022-09-14T00:06:32.166Z,0.00
2022-09-14T00:07:32.190Z,0.00
2022-09-14T00:08:32.143Z,0.00
2022-09-14T00:09:32.129Z,0.00
2022-09-14T00:10:32.112Z,0.00
2022-09-14T00:11:32.140Z,0.00
2022-09-14T00:12:32.088Z,0.00
2022-09-14T00:13:32.076Z,0.00
2022-09-14T00:14:32.051Z,0.00
2022-09-14T00:15:32.068Z,0.00
2022-09-14T00:16:32.093Z,0.00
2022-09-14T00:17:32.026Z,0.00
2022-09-14T00:18:32.005Z,0.00
2022-09-14T00:19:32.005Z,0.00
2022-09-14T00:20:31.979Z,0.00
2022-09-14T00:21:31.962Z,0.00
2022-09-14T00:22:31.959Z,0.00
2022-09-14T00:23:31.975Z,0.00
2022-09-14T00:24:31.960Z,0.00
2022-09-14T00:25:31.905Z,0.00
2022-09-14T00:26:31.923Z,0.00
2022-09-14T00:27:31.879Z,0.00
2022-09-14T00:28:31.870Z,0.00
2022-09-14T00:29:31.858Z,0.00
2022-09-14T00:30:31.842Z,0.00
2022-09-14T00:31:32.009Z,0.00
2022-09-14T00:32:31.804Z,0.00
2022-09-14T00:33:31.826Z,0.00
2022-09-14T00:34:31.791Z,0.00
2022-09-14T00:35:31.777Z,0.00
2022-09-14T00:36:32.816Z,0.00
2022-09-14T00:37:31.761Z,0.00
2022-09-14T00:38:31.727Z,0.00
2022-09-14T00:39:31.718Z,0.00
2022-09-14T00:40:31.725Z,0.00
2022-09-14T00:41:31.694Z,0.00
2022-09-14T00:42:31.677Z,0.00
2022-09-14T00:43:31.926Z,0.00
2022-09-14T00:44:32.044Z,0.00
2022-09-14T00:45:31.657Z,0.00
2022-09-14T00:46:31.622Z,0.00
2022-09-14T00:47:31.614Z,0.00
2022-09-14T00:48:31.600Z,0.00
2022-09-14T00:49:31.582Z,0.00
2022-09-14T00:50:31.561Z,0.00
2022-09-14T00:51:31.566Z,0.00
2022-09-14T00:52:31.545Z,0.00
2022-09-14T00:53:31.553Z,0.00
2022-09-14T00:54:31.567Z,0.00
2022-09-14T00:55:31.527Z,0.00
2022-09-14T00:56:31.485Z,0.00
2022-09-14T00:57:31.470Z,0.00
2022-09-14T00:58:31.450Z,0.00
2022-09-14T00:59:31.455Z,0.00
2022-09-14T01:00:31.422Z,0.00
2022-09-14T01:01:31.458Z,0.00
2022-09-14T01:02:31.464Z,0.00
2022-09-14T01:03:31.391Z,0.00
2022-09-14T01:04:31.420Z,0.00
2022-09-14T01:05:31.372Z,0.00
2022-09-14T01:06:31.360Z,0.00
2022-09-14T01:07:31.339Z,0.00
2022-09-14T01:08:31.318Z,0.00
2022-09-14T01:09:31.329Z,0.00
2022-09-14T01:10:31.404Z,0.00
2022-09-14T01:11:31.278Z,0.00
2022-09-14T01:12:31.271Z,0.00
2022-09-14T01:13:52.315Z,0.00
2022-09-14T01:14:31.243Z,0.00
2022-09-14T01:15:31.301Z,0.00
2022-09-14T01:16:31.309Z,0.00
2022-09-14T01:17:31.182Z,0.00
2022-09-14T01:18:33.286Z,0.00
2022-09-14T01:19:31.177Z,0.00
2022-09-14T01:20:31.168Z,0.00
2022-09-14T01:21:52.139Z,0.00
2022-09-14T01:22:31.175Z,0.00
2022-09-14T01:23:31.114Z,0.00
2022-09-14T01:24:31.101Z,0.00
2022-09-14T01:25:31.079Z,0.00
2022-09-14T01:26:31.074Z,0.00
2022-09-14T01:27:31.083Z,0.00
2022-09-14T01:28:31.065Z,0.00
2022-09-14T01:29:31.036Z,0.00
2022-09-14T01:30:31.092Z,0.00
2022-09-14T01:31:31.028Z,0.00
2022-09-14T01:32:30.991Z,0.00
2022-09-14T01:33:31.114Z,0.00
2022-09-14T01:34:30.975Z,0.00
2022-09-14T01:35:30.944Z,0.00
2022-09-14T01:36:31.132Z,0.00
2022-09-14T01:37:31.418Z,0.00
2022-09-14T01:38:30.913Z,0.00
2022-09-14T01:39:30.899Z,0.00
2022-09-14T01:40:30.955Z,0.00
2022-09-14T01:41:30.869Z,0.00
2022-09-14T01:42:30.843Z,0.00
2022-09-14T01:43:31.013Z,0.00
2022-09-14T01:44:32.767Z,0.00
2022-09-14T01:45:30.848Z,0.00
2022-09-14T01:46:30.788Z,0.00
2022-09-14T01:47:30.771Z,0.00
2022-09-14T01:48:30.788Z,0.00
2022-09-14T01:49:30.876Z,0.00
2022-09-14T01:50:30.982Z,0.00
2022-09-14T01:51:30.730Z,0.00
2022-09-14T01:52:30.754Z,0.00
2022-09-14T01:53:30.701Z,0.00
2022-09-14T01:54:30.704Z,0.00
2022-09-14T01:55:30.662Z,0.00
2022-09-14T01:56:30.665Z,0.00
2022-09-14T01:57:30.786Z,0.00
2022-09-14T01:58:30.633Z,0.00
2022-09-14T01:59:30.633Z,0.00
2022-09-14T02:00:30.597Z,0.00
2022-09-14T02:01:30.644Z,0.00
2022-09-14T02:02:30.839Z,0.00
2022-09-14T02:03:30.566Z,0.00
2022-09-14T02:04:30.544Z,0.00
2022-09-14T02:05:30.572Z,0.00
2022-09-14T02:06:30.520Z,0.00
2022-09-14T02:07:30.508Z,0.00
2022-09-14T02:08:30.487Z,0.00
2022-09-14T02:09:30.501Z,0.00
2022-09-14T02:10:30.456Z,0.00
2022-09-14T02:11:30.441Z,0.00
2022-09-14T02:12:30.437Z,0.00
2022-09-14T02:13:30.437Z,0.00
2022-09-14T02:14:30.411Z,0.00
2022-09-14T02:15:30.384Z,0.00
2022-09-14T02:16:30.469Z,0.00
2022-09-14T02:17:30.359Z,0.00
2022-09-14T02:18:30.356Z,0.00
2022-09-14T02:19:30.340Z,0.00
2022-09-14T02:20:30.325Z,0.00
2022-09-14T02:21:30.318Z,0.00
2022-09-14T02:22:30.288Z,0.00
2022-09-14T02:23:30.282Z,0.00
2022-09-14T02:24:30.289Z,0.00
2022-09-14T02:25:30.294Z,0.00
2022-09-14T02:26:30.238Z,0.00
2022-09-14T02:27:30.226Z,0.00
2022-09-14T02:28:30.225Z,0.00
2022-09-14T02:29:30.694Z,0.00
2022-09-14T02:30:30.180Z,0.00
2022-09-14T02:31:30.289Z,0.00
2022-09-14T02:32:30.166Z,0.00
2022-09-14T02:33:30.146Z,0.00
2022-09-14T02:34:30.123Z,0.00
2022-09-14T02:35:30.123Z,0.00
2022-09-14T02:36:30.484Z,0.00
2022-09-14T02:37:30.087Z,0.00
2022-09-14T02:38:30.062Z,0.00
2022-09-14T02:39:30.054Z,0.00
2022-09-14T02:40:30.194Z,0.00
2022-09-14T02:41:30.032Z,0.00
2022-09-14T02:42:30.024Z,0.00
2022-09-14T02:43:30.022Z,0.00
2022-09-14T02:44:29.986Z,0.00
2022-09-14T02:45:29.992Z,0.00
2022-09-14T02:46:30.020Z,0.00
2022-09-14T02:47:29.970Z,0.00
2022-09-14T02:48:29.939Z,0.00
2022-09-14T02:49:29.923Z,0.00
2022-09-14T02:50:29.905Z,0.00
2022-09-14T02:51:29.890Z,0.00
2022-09-14T02:52:29.902Z,0.00
2022-09-14T02:53:29.897Z,0.00
2022-09-14T02:54:29.837Z,0.00
2022-09-14T02:55:29.847Z,0.00
2022-09-14T02:56:29.877Z,0.00
2022-09-14T02:57:29.812Z,0.00
2022-09-14T02:58:29.810Z,0.00
2022-09-14T02:59:29.788Z,0.00
2022-09-14T03:00:29.826Z,0.00
2022-09-14T03:01:29.814Z,0.00
2022-09-14T03:02:29.768Z,0.00
2022-09-14T03:03:33.507Z,0.00
2022-09-14T03:04:29.725Z,0.00
2022-09-14T03:05:29.742Z,0.00
2022-09-14T03:06:29.684Z,0.00
2022-09-14T03:07:29.667Z,0.00
2022-09-14T03:08:29.658Z,0.00
2022-09-14T03:09:29.633Z,0.00
2022-09-14T03:10:29.689Z,0.00
2022-09-14T03:11:29.622Z,0.00
2022-09-14T03:12:29.610Z,0.00
2022-09-14T03:13:29.583Z,0.00
2022-09-14T03:14:29.574Z,0.00
2022-09-14T03:15:29.558Z,0.00
2022-09-14T03:16:29.648Z,0.00
2022-09-14T03:17:29.524Z,0.00
2022-09-14T03:18:29.520Z,0.00
2022-09-14T03:19:29.504Z,0.00
2022-09-14T03:20:29.487Z,0.00
2022-09-14T03:21:29.477Z,0.00
2022-09-14T03:22:29.466Z,0.00
2022-09-14T03:23:29.468Z,0.00
2022-09-14T03:24:29.494Z,0.00
2022-09-14T03:25:29.420Z,0.00
2022-09-14T03:26:29.413Z,0.00
2022-09-14T03:27:29.380Z,0.00
2022-09-14T03:28:29.390Z,0.00
2022-09-14T03:29:29.372Z,0.00
2022-09-14T03:30:29.392Z,0.00
2022-09-14T03:31:29.510Z,0.00
2022-09-14T03:32:29.331Z,0.00
2022-09-14T03:33:29.311Z,0.00
2022-09-14T03:34:29.325Z,0.00
2022-09-14T03:35:29.279Z,0.00
2022-09-14T03:36:29.535Z,0.00
2022-09-14T03:37:29.263Z,0.00
2022-09-14T03:38:29.240Z,0.00
2022-09-14T03:39:29.220Z,0.00
2022-09-14T03:40:30.899Z,0.00
2022-09-14T03:41:29.212Z,0.00
2022-09-14T03:42:29.221Z,0.00
2022-09-14T03:43:29.343Z,0.00
2022-09-14T03:44:29.170Z,0.00
2022-09-14T03:45:29.167Z,0.00
2022-09-14T03:46:29.272Z,0.00
2022-09-14T03:47:29.122Z,0.00
2022-09-14T03:48:29.108Z,0.00
2022-09-14T03:49:29.098Z,0.00
2022-09-14T03:50:29.092Z,0.00
2022-09-14T03:51:29.079Z,0.00
2022-09-14T03:52:29.063Z,0.00
2022-09-14T03:53:29.038Z,0.00
2022-09-14T03:54:29.036Z,0.00
2022-09-14T03:55:29.022Z,0.00
2022-09-14T03:56:29.009Z,0.00
2022-09-14T03:57:28.972Z,0.00
2022-09-14T03:58:27.968Z,0.00
2022-09-14T03:59:28.943Z,0.00
2022-09-14T04:00:30.069Z,0.00
2022-09-14T04:01:28.981Z,0.00
2022-09-14T04:02:29.491Z,0.00
2022-09-14T04:03:28.901Z,0.00
2022-09-14T04:04:28.910Z,0.00
2022-09-14T04:05:28.898Z,0.00
2022-09-14T04:06:31.041Z,0.00
2022-09-14T04:07:29.069Z,0.00
2022-09-14T04:08:28.827Z,0.00
2022-09-14T04:09:28.806Z,0.00
2022-09-14T04:10:28.814Z,0.00
2022-09-14T04:11:28.800Z,0.00
2022-09-14T04:12:28.776Z,0.00
2022-09-14T04:13:28.769Z,0.00
2022-09-14T04:14:28.744Z,0.00
2022-09-14T04:15:28.799Z,0.00
2022-09-14T04:16:28.779Z,0.00
2022-09-14T04:17:28.712Z,0.00
2022-09-14T04:18:28.699Z,0.00
2022-09-14T04:19:28.690Z,0.00
2022-09-14T04:20:28.703Z,0.00
2022-09-14T04:21:28.660Z,0.00
2022-09-14T04:22:28.682Z,0.00
2022-09-14T04:23:28.605Z,0.00
2022-09-14T04:24:30.588Z,0.00
2022-09-14T04:25:28.608Z,0.00
2022-09-14T04:26:28.601Z,0.00
2022-09-14T04:27:28.581Z,0.00
2022-09-14T04:28:28.568Z,0.00
2022-09-14T04:29:28.564Z,0.00
2022-09-14T04:30:29.798Z,0.00
2022-09-14T04:31:28.565Z,0.00
2022-09-14T04:32:33.561Z,0.00
2022-09-14T04:33:28.484Z,0.00
2022-09-14T04:34:28.474Z,0.00
2022-09-14T04:35:28.700Z,0.00
2022-09-14T04:36:28.747Z,0.00
2022-09-14T04:37:28.430Z,0.00
2022-09-14T04:38:28.428Z,0.00
2022-09-14T04:39:28.396Z,0.00
2022-09-14T04:40:28.508Z,0.00
2022-09-14T04:41:28.368Z,0.00
2022-09-14T04:42:28.374Z,0.00
2022-09-14T04:43:28.360Z,0.00
2022-09-14T04:44:28.328Z,0.00
2022-09-14T04:45:30.360Z,0.00
2022-09-14T04:46:28.402Z,0.00
2022-09-14T04:47:28.322Z,0.00
2022-09-14T04:48:28.277Z,0.00
2022-09-14T04:49:28.277Z,0.00
2022-09-14T04:50:28.245Z,0.00
2022-09-14T04:51:28.236Z,0.00
2022-09-14T04:52:28.226Z,0.00
2022-09-14T04:53:28.239Z,0.00
2022-09-14T04:54:28.213Z,0.00
2022-09-14T04:55:28.193Z,0.00
2022-09-14T04:56:28.240Z,0.00
2022-09-14T04:57:28.151Z,0.00
2022-09-14T04:58:28.139Z,0.00
2022-09-14T04:59:28.124Z,0.00
2022-09-14T05:00:28.142Z,0.00
2022-09-14T05:01:28.174Z,0.00
2022-09-14T05:02:28.125Z,0.00
2022-09-14T05:03:28.104Z,0.00
2022-09-14T05:04:28.060Z,0.00
2022-09-14T05:05:28.056Z,0.00
2022-09-14T05:06:28.051Z,0.00
2022-09-14T05:07:28.011Z,0.00
2022-09-14T05:08:28.591Z,0.00
2022-09-14T05:09:28.006Z,0.00
2022-09-14T05:10:28.007Z,0.00
2022-09-14T05:11:27.967Z,0.00
2022-09-14T05:12:27.978Z,0.00
2022-09-14T05:13:27.942Z,0.00
2022-09-14T05:14:27.946Z,0.00
2022-09-14T05:15:27.907Z,0.00
2022-09-14T05:16:27.971Z,0.00
2022-09-14T05:17:27.879Z,0.00
2022-09-14T05:18:27.861Z,0.00
2022-09-14T05:19:27.854Z,0.00
2022-09-14T05:20:27.880Z,0.00
2022-09-14T05:21:27.846Z,0.00
2022-09-14T05:22:27.813Z,0.00
2022-09-14T05:23:27.855Z,0.00
2022-09-14T05:24:27.826Z,0.00
2022-09-14T05:25:27.771Z,0.00
2022-09-14T05:26:27.765Z,0.00
2022-09-14T05:27:27.737Z,0.00
2022-09-14T05:28:27.789Z,5.62
2022-09-14T05:29:27.803Z,5.62
2022-09-14T05:30:27.731Z,5.62
2022-09-14T05:31:27.752Z,5.62
2022-09-14T05:32:27.709Z,5.62
2022-09-14T05:33:27.657Z,5.62
2022-09-14T05:34:27.666Z,5.62
2022-09-14T05:35:27.645Z,5.62
2022-09-14T05:36:27.634Z,5.62
2022-09-14T05:37:28.819Z,5.62
2022-09-14T05:44:38.992Z,5.62
2022-09-14T05:45:39.940Z,5.62
2022-09-14T05:46:40.007Z,5.62
2022-09-14T05:47:39.969Z,5.62
2022-09-14T05:48:39.928Z,5.62
2022-09-14T05:49:39.857Z,5.62
2022-09-14T05:50:39.815Z,5.62
2022-09-14T05:51:39.804Z,5.62
2022-09-14T05:52:39.777Z,5.62
2022-09-14T05:53:39.768Z,5.62
2022-09-14T05:54:39.812Z,11.25
2022-09-14T05:55:39.755Z,11.25
2022-09-14T05:56:39.726Z,11.25
2022-09-14T05:57:39.726Z,11.25
2022-09-14T05:58:39.692Z,5.62
2022-09-14T05:59:39.708Z,5.62
2022-09-14T06:00:39.685Z,5.62
2022-09-14T06:01:39.679Z,5.62
2022-09-14T06:02:39.662Z,5.62
2022-09-14T06:03:39.693Z,5.62
2022-09-14T06:04:39.645Z,5.62
2022-09-14T06:05:39.670Z,5.62
2022-09-14T06:06:39.602Z,5.62
2022-09-14T06:07:39.562Z,5.62
2022-09-14T06:08:39.619Z,11.25
2022-09-14T06:09:39.582Z,11.25
2022-09-14T06:10:39.531Z,11.25
2022-09-14T06:11:39.551Z,11.25
2022-09-14T06:12:39.499Z,11.25
2022-09-14T06:13:39.500Z,11.25
2022-09-14T06:14:39.497Z,11.25
2022-09-14T06:15:41.777Z,11.25
2022-09-14T06:16:42.549Z,11.25
2022-09-14T06:17:39.441Z,11.25
2022-09-14T06:18:39.418Z,11.25
2022-09-14T06:19:39.438Z,11.25
2022-09-14T06:20:39.407Z,11.25
2022-09-14T06:21:39.369Z,11.25
2022-09-14T06:35:32.252Z,16.88
2022-09-14T06:36:33.221Z,22.50
2022-09-14T06:38:46.422Z,22.50
2022-09-14T06:39:47.417Z,22.50
2022-09-14T06:40:47.365Z,22.50
2022-09-14T06:41:47.473Z,22.50
2022-09-14T06:46:48.493Z,22.50
2022-09-14T06:56:54.525Z,39.38
2022-09-14T06:57:55.478Z,39.38
2022-09-14T06:58:55.490Z,45.00
2022-09-14T06:59:55.481Z,39.38
2022-09-14T07:01:32.877Z,39.38
2022-09-14T07:01:55.457Z,39.38
2022-09-14T07:02:55.896Z,39.38
2022-09-14T07:06:46.250Z,33.75
2022-09-14T07:07:45.498Z,33.75
2022-09-14T07:08:45.427Z,28.12
2022-09-14T07:09:45.382Z,28.12
2022-09-14T07:10:45.527Z,28.12
2022-09-14T07:11:46.538Z,28.12
2022-09-14T07:12:45.626Z,28.12
2022-09-14T07:13:45.462Z,28.12
2022-09-14T07:14:45.315Z,33.75
2022-09-14T07:15:45.335Z,33.75
2022-09-14T07:17:24.879Z,33.75
2022-09-14T07:17:45.408Z,39.38
2022-09-14T07:18:45.429Z,39.38
2022-09-14T07:19:45.251Z,39.38
2022-09-14T07:20:45.459Z,39.38
2022-09-14T07:21:45.252Z,39.38
2022-09-14T07:31:39.212Z,45.00
2022-09-14T07:32:34.295Z,45.00
2022-09-14T07:33:37.580Z,45.00
2022-09-14T07:34:34.513Z,45.00
2022-09-14T07:35:34.229Z,45.00
2022-09-14T07:36:35.208Z,50.62
2022-09-14T07:37:34.266Z,50.62
2022-09-14T07:38:51.111Z,50.62
2022-09-14T07:39:34.197Z,50.62
2022-09-14T07:40:34.171Z,50.62
2022-09-14T07:41:36.015Z,56.25
2022-09-14T07:46:50.117Z,56.25
2022-09-14T07:47:48.820Z,56.25
2022-09-14T07:48:49.777Z,56.25
2022-09-14T07:50:10.055Z,56.25
2022-09-14T07:50:48.808Z,56.25
2022-09-14T07:54:27.790Z,61.88
2022-09-14T07:55:50.540Z,61.88
2022-09-14T07:56:28.850Z,61.88
2022-09-14T07:57:52.265Z,61.88
2022-09-14T07:58:29.068Z,61.88
2022-09-14T08:11:28.036Z,78.75
2022-09-14T08:15:31.776Z,84.38
2022-09-14T08:15:56.868Z,90.00
2022-09-14T08:25:25.074Z,101.25
2022-09-14T08:26:33.709Z,95.62
2022-09-14T08:27:25.910Z,90.00
2022-09-14T08:28:25.892Z,84.38
2022-09-14T08:29:28.160Z,78.75
2022-09-14T08:30:25.885Z,73.12
2022-09-14T08:31:25.923Z,67.50
2022-09-14T08:32:46.898Z,61.88
2022-09-14T08:33:46.923Z,61.88
2022-09-14T08:34:26.023Z,61.88
2022-09-14T08:35:46.861Z,61.88
2022-09-14T08:48:24.698Z,78.75
2022-09-14T08:49:44.916Z,78.75
2022-09-14T08:50:23.891Z,78.75
2022-09-14T08:51:23.899Z,78.75
2022-09-14T08:52:24.098Z,73.12
2022-09-14T08:53:23.880Z,73.12
2022-09-14T08:54:23.874Z,78.75
2022-09-14T08:59:04.242Z,90.00
2022-09-14T09:00:03.872Z,90.00
2022-09-14T09:01:33.750Z,90.00
2022-09-14T09:02:03.871Z,90.00
2022-09-14T09:03:05.962Z,90.00
2022-09-14T09:04:03.994Z,90.00
2022-09-14T09:05:27.034Z,90.00
2022-09-14T09:06:03.885Z,90.00
2022-09-14T09:07:37.428Z,84.38
2022-09-14T09:08:03.766Z,84.38
2022-09-14T09:09:03.762Z,84.38
2022-09-14T09:10:24.750Z,84.38
2022-09-14T09:11:03.731Z,84.38
2022-09-14T09:12:03.734Z,84.38
2022-09-14T09:13:03.717Z,84.38
2022-09-14T09:20:43.505Z,90.00
2022-09-14T09:22:19.076Z,90.00
2022-09-14T09:22:42.703Z,90.00
2022-09-14T09:24:04.019Z,90.00
2022-09-14T09:24:42.710Z,84.38
2022-09-14T09:25:42.660Z,84.38
2022-09-14T09:26:42.668Z,84.38
2022-09-14T10:03:56.631Z,84.38
2022-09-14T10:05:20.625Z,84.38
2022-09-14T10:05:57.603Z,84.38
2022-09-14T10:07:23.914Z,84.38
2022-09-14T10:07:57.611Z,84.38
2022-09-14T10:08:57.523Z,84.38
2022-09-14T10:20:35.399Z,90.00
2022-09-14T10:21:36.381Z,90.00
2022-09-14T10:22:36.365Z,90.00
2022-09-14T10:23:36.336Z,90.00
2022-09-14T10:24:36.377Z,84.38
2022-09-14T10:25:36.314Z,78.75
2022-09-14T10:26:36.319Z,73.12
2022-09-14T10:27:38.220Z,73.12
2022-09-14T10:28:36.270Z,67.50
2022-09-14T10:29:36.281Z,67.50
2022-09-14T10:30:36.273Z,67.50
2022-09-14T10:31:36.354Z,61.88
2022-09-14T10:32:36.213Z,61.88
2022-09-14T10:33:36.251Z,61.88
2022-09-14T10:34:36.179Z,61.88
2022-09-14T10:35:36.181Z,61.88
2022-09-14T10:36:36.193Z,61.88
2022-09-14T10:37:36.165Z,61.88
2022-09-14T10:38:36.135Z,61.88
2022-09-14T10:39:36.140Z,61.88
2022-09-14T10:40:36.121Z,61.88
2022-09-14T10:41:36.154Z,61.88
2022-09-14T10:42:36.129Z,61.88
2022-09-14T10:43:36.076Z,61.88
2022-09-14T10:44:36.137Z,61.88
2022-09-14T10:45:36.060Z,67.50
2022-09-14T10:46:36.151Z,67.50
2022-09-14T10:47:36.079Z,67.50
2022-09-14T10:48:36.045Z,67.50
2022-09-14T10:49:35.994Z,67.50
2022-09-14T10:50:35.980Z,67.50
2022-09-14T10:51:35.959Z,67.50
2022-09-14T10:52:35.957Z,67.50
2022-09-14T10:53:35.962Z,67.50
2022-09-14T10:54:35.915Z,73.12
2022-09-14T10:55:35.911Z,73.12
2022-09-14T10:56:35.923Z,73.12
2022-09-14T10:57:35.939Z,73.12
2022-09-14T10:58:35.921Z,73.12
2022-09-14T10:59:35.847Z,73.12
2022-09-14T11:00:35.921Z,73.12
2022-09-14T11:01:35.908Z,73.12
2022-09-14T11:02:35.965Z,73.12
2022-09-14T11:03:35.803Z,73.12
2022-09-14T11:04:36.930Z,73.12
2022-09-14T11:05:35.778Z,73.12
2022-09-14T11:06:35.887Z,78.75
2022-09-14T11:07:35.779Z,78.75
2022-09-14T11:08:35.750Z,78.75
2022-09-14T11:09:35.734Z,78.75
2022-09-14T11:10:35.720Z,78.75
2022-09-14T11:11:35.699Z,78.75
2022-09-14T11:12:35.692Z,78.75
2022-09-14T11:13:35.664Z,78.75
2022-09-14T11:14:35.660Z,84.38
2022-09-14T11:15:35.662Z,84.38
2022-09-14T11:16:35.639Z,84.38
2022-09-14T11:17:35.652Z,84.38
2022-09-14T11:18:37.855Z,84.38
2022-09-14T11:19:35.593Z,84.38
2022-09-14T11:22:00.715Z,84.38
2022-09-14T11:22:58.621Z,84.38
2022-09-14T11:23:58.581Z,84.38
2022-09-14T11:24:58.563Z,84.38
2022-09-14T11:25:58.548Z,84.38
2022-09-14T11:26:58.539Z,84.38
2022-09-14T11:27:58.534Z,84.38
2022-09-14T11:49:36.019Z,67.50
2022-09-14T11:50:35.977Z,73.12
2022-09-14T11:51:36.987Z,73.12
2022-09-14T11:52:36.982Z,73.12
2022-09-14T11:53:36.972Z,73.12
2022-09-14T11:54:37.014Z,73.12
2022-09-14T11:55:36.954Z,78.75
2022-09-14T11:56:36.934Z,78.75
2022-09-14T11:57:36.900Z,78.75
2022-09-14T11:58:46.975Z,78.75
2022-09-14T12:00:49.806Z,84.38
2022-09-14T12:01:50.792Z,84.38
2022-09-14T12:02:50.875Z,84.38
2022-09-14T12:03:52.144Z,90.00
2022-09-14T12:04:51.919Z,90.00
2022-09-14T12:13:39.585Z,101.25
2022-09-14T12:40:18.998Z,84.38
2022-09-14T12:48:45.419Z,78.75
2022-09-14T13:01:35.089Z,95.62
2022-09-14T13:02:36.119Z,95.62
2022-09-14T13:03:35.930Z,90.00
2022-09-14T13:04:35.923Z,90.00
2022-09-14T13:05:35.994Z,84.38
2022-09-14T13:06:35.889Z,84.38
2022-09-14T13:07:35.881Z,84.38
2022-09-14T13:08:35.887Z,84.38
2022-09-14T13:09:35.875Z,84.38
2022-09-14T13:10:35.831Z,84.38
2022-09-14T13:11:35.818Z,78.75
2022-09-14T13:12:35.822Z,78.75
2022-09-14T13:13:35.805Z,78.75
2022-09-14T13:14:35.810Z,78.75
2022-09-14T13:15:35.794Z,84.38
2022-09-14T13:16:35.759Z,78.75
2022-09-14T13:17:35.750Z,73.12
2022-09-14T13:18:35.742Z,73.12
2022-09-14T13:19:35.748Z,78.75
2022-09-14T13:20:35.701Z,78.75
2022-09-14T13:21:35.690Z,78.75
2022-09-14T13:22:35.681Z,78.75
2022-09-14T13:23:35.663Z,78.75
2022-09-14T13:24:35.677Z,78.75
2022-09-14T13:25:35.629Z,73.12
2022-09-14T13:26:35.618Z,78.75
2022-09-14T13:27:35.595Z,73.12
2022-09-14T13:28:35.633Z,67.50
2022-09-14T13:29:35.588Z,67.50
2022-09-14T13:30:35.791Z,67.50
2022-09-14T13:31:37.368Z,67.50
2022-09-14T13:32:35.594Z,73.12
2022-09-14T13:33:35.602Z,73.12
2022-09-14T13:34:35.547Z,78.75
2022-09-14T13:35:35.507Z,78.75
2022-09-14T13:36:35.503Z,84.38
2022-09-14T13:37:36.650Z,84.38
2022-09-14T13:38:35.519Z,84.38
2022-09-14T13:39:35.513Z,90.00
2022-09-14T13:40:35.516Z,84.38
2022-09-14T13:41:35.449Z,84.38
2022-09-14T13:42:35.434Z,84.38
2022-09-14T13:43:35.438Z,84.38
2022-09-14T13:44:35.433Z,90.00
2022-09-14T13:45:35.475Z,90.00
2022-09-14T13:46:35.493Z,90.00
2022-09-14T13:47:35.360Z,90.00
2022-09-14T13:48:35.347Z,90.00
2022-09-14T13:49:35.319Z,90.00
2022-09-14T13:50:35.304Z,90.00
2022-09-14T13:51:35.304Z,90.00
2022-09-14T13:52:59.987Z,90.00
2022-09-14T13:53:35.285Z,90.00
2022-09-14T13:54:35.292Z,90.00
2022-09-14T13:55:35.237Z,90.00
2022-09-14T13:56:35.244Z,90.00
2022-09-14T13:57:35.208Z,90.00
2022-09-14T13:58:35.855Z,90.00
2022-09-14T13:59:35.235Z,90.00
2022-09-14T14:00:35.228Z,90.00
2022-09-14T14:01:35.227Z,95.62
2022-09-14T14:02:35.229Z,95.62
2022-09-14T14:03:35.152Z,95.62
2022-09-14T14:04:35.195Z,95.62
2022-09-14T14:05:35.146Z,95.62
2022-09-14T14:06:35.114Z,95.62
2022-09-14T14:07:35.121Z,95.62
2022-09-14T14:08:35.082Z,95.62
2022-09-14T14:09:35.072Z,95.62
2022-09-14T14:10:35.105Z,95.62
2022-09-14T14:11:35.068Z,95.62
2022-09-14T14:12:35.020Z,90.00
2022-09-14T14:13:35.003Z,90.00
2022-09-14T14:14:34.996Z,90.00
2022-09-14T14:15:35.010Z,90.00
2022-09-14T14:16:35.007Z,90.00
2022-09-14T14:17:34.943Z,90.00
2022-09-14T14:18:34.936Z,90.00
2022-09-14T14:19:34.917Z,90.00
2022-09-14T14:20:34.961Z,90.00
2022-09-14T14:21:34.894Z,90.00
2022-09-14T14:22:34.910Z,90.00
2022-09-14T14:23:35.171Z,84.38
2022-09-14T14:24:41.110Z,84.38
2022-09-14T14:25:34.896Z,78.75
2022-09-14T14:26:34.847Z,78.75
2022-09-14T14:27:34.824Z,78.75
2022-09-14T14:28:34.817Z,78.75
2022-09-14T14:29:34.794Z,78.75
2022-09-14T14:30:34.790Z,78.75
2022-09-14T14:31:34.823Z,78.75
2022-09-14T14:32:34.780Z,84.38
2022-09-14T14:33:34.761Z,84.38
2022-09-14T14:34:55.757Z,90.00
2022-09-14T14:35:34.769Z,90.00
2022-09-14T14:36:34.797Z,90.00
2022-09-14T14:49:35.076Z,61.88
2022-09-14T14:50:35.965Z,56.25
2022-09-14T14:51:35.880Z,56.25
2022-09-14T14:52:35.882Z,56.25
2022-09-14T14:53:35.900Z,56.25
2022-09-14T14:54:35.849Z,50.62
2022-09-14T14:55:35.818Z,50.62
2022-09-14T14:56:35.830Z,50.62
2022-09-14T14:57:36.642Z,56.25
2022-09-14T14:58:36.512Z,50.62
2022-09-14T14:59:36.192Z,50.62
2022-09-14T15:00:35.796Z,50.62
2022-09-14T15:01:35.770Z,50.62
2022-09-14T15:02:35.721Z,45.00
2022-09-14T15:03:35.864Z,45.00
2022-09-14T15:04:36.635Z,45.00
2022-09-14T15:05:35.675Z,45.00
2022-09-14T15:06:35.699Z,45.00
2022-09-14T15:07:37.767Z,50.62
2022-09-14T15:08:35.639Z,56.25
2022-09-14T15:09:35.634Z,56.25
2022-09-14T15:10:35.648Z,56.25
2022-09-14T15:11:36.142Z,56.25
2022-09-14T15:12:35.612Z,61.88
2022-09-14T15:13:35.596Z,61.88
2022-09-14T15:14:35.636Z,61.88
2022-09-14T15:15:35.555Z,61.88
2022-09-14T15:16:35.595Z,61.88
2022-09-14T15:17:36.750Z,61.88
2022-09-14T15:18:35.618Z,61.88
2022-09-14T15:19:35.525Z,61.88
2022-09-14T15:20:35.528Z,56.25
2022-09-14T15:21:35.478Z,56.25
2022-09-14T15:22:35.470Z,56.25
2022-09-14T15:23:35.444Z,56.25
2022-09-14T15:24:35.444Z,56.25
2022-09-14T15:25:35.422Z,56.25
2022-09-14T15:26:35.394Z,56.25
2022-09-14T15:27:35.389Z,56.25
2022-09-14T15:28:35.439Z,56.25
2022-09-14T15:29:35.391Z,61.88
2022-09-14T15:30:35.382Z,61.88
2022-09-14T15:31:35.428Z,61.88
2022-09-14T15:32:36.161Z,61.88
2022-09-14T15:33:35.426Z,67.50
2022-09-14T15:34:35.323Z,67.50
2022-09-14T15:35:36.031Z,67.50
2022-09-14T15:36:35.331Z,67.50
2022-09-14T15:37:35.297Z,61.88
2022-09-14T15:38:35.243Z,61.88
2022-09-14T15:39:36.030Z,56.25
2022-09-14T15:40:35.351Z,56.25
2022-09-14T15:41:35.228Z,56.25
2022-09-14T15:42:35.250Z,56.25
2022-09-14T15:43:35.263Z,56.25
2022-09-14T15:44:35.189Z,56.25
2022-09-14T15:45:35.212Z,56.25
2022-09-14T15:46:35.135Z,56.25
2022-09-14T15:47:36.548Z,56.25
2022-09-14T15:48:35.323Z,56.25
2022-09-14T15:49:35.768Z,56.25
2022-09-14T15:50:35.093Z,50.62
2022-09-14T15:51:35.085Z,50.62
2022-09-14T15:52:35.096Z,50.62
2022-09-14T15:53:35.085Z,50.62
2022-09-14T15:54:35.088Z,50.62
2022-09-14T15:55:35.014Z,50.62
2022-09-14T15:56:35.349Z,50.62
2022-09-14T15:57:35.032Z,50.62
2022-09-14T15:58:34.973Z,50.62
2022-09-14T15:59:34.991Z,50.62
2022-09-14T16:00:35.698Z,50.62
2022-09-14T16:01:35.012Z,50.62
2022-09-14T16:02:34.987Z,50.62
2022-09-14T16:03:35.693Z,50.62
2022-09-14T16:04:34.912Z,45.00
2022-09-14T16:05:34.933Z,45.00
2022-09-14T16:06:34.927Z,45.00
2022-09-14T16:07:34.903Z,39.38
2022-09-14T16:19:43.939Z,56.25
2022-09-14T16:20:43.254Z,56.25
2022-09-14T16:21:43.265Z,56.25
2022-09-14T16:22:43.344Z,61.88
2022-09-14T16:24:01.654Z,61.88
2022-09-14T16:24:43.214Z,67.50
2022-09-14T16:25:43.450Z,67.50
2022-09-14T16:26:43.257Z,67.50
2022-09-14T16:41:51.013Z,45.00
2022-09-14T16:42:50.261Z,45.00
2022-09-14T16:43:50.247Z,39.38
2022-09-14T16:44:50.529Z,39.38
2022-09-14T16:45:50.249Z,33.75
2022-09-14T16:46:50.289Z,33.75
2022-09-14T16:47:50.188Z,33.75
2022-09-14T16:48:50.344Z,28.12
2022-09-14T16:49:50.235Z,28.12
2022-09-14T16:50:50.152Z,28.12
2022-09-14T16:51:50.180Z,28.12
2022-09-14T16:52:50.172Z,28.12
2022-09-14T16:53:50.094Z,28.12
2022-09-14T16:54:54.119Z,28.12
2022-09-14T16:55:50.081Z,28.12
2022-09-14T16:56:50.061Z,28.12
2022-09-14T16:57:50.065Z,28.12
2022-09-14T17:01:39.145Z,28.12
2022-09-14T17:02:40.116Z,28.12
2022-09-14T17:03:40.019Z,28.12
2022-09-14T17:04:40.011Z,22.50
2022-09-14T17:05:39.995Z,22.50
2022-09-14T17:06:40.013Z,22.50
2022-09-14T17:07:39.960Z,22.50
2022-09-14T17:08:43.677Z,22.50
2022-09-14T17:09:39.954Z,22.50
2022-09-14T17:10:39.942Z,22.50
2022-09-14T17:11:39.915Z,22.50
2022-09-14T17:12:39.892Z,22.50
2022-09-14T17:13:39.893Z,22.50
2022-09-14T17:14:39.886Z,16.88
2022-09-14T17:15:39.866Z,16.88
2022-09-14T17:16:39.893Z,16.88
2022-09-14T17:17:39.841Z,16.88
2022-09-14T17:18:39.815Z,16.88
2022-09-14T17:19:43.495Z,11.25
2022-09-14T17:20:39.788Z,11.25
2022-09-14T17:21:39.794Z,11.25
2022-09-14T17:22:39.767Z,11.25
2022-09-14T17:23:39.760Z,11.25
2022-09-14T17:24:39.747Z,5.62